Terminal Aerodrome Forecast
Issued by NWS Wakefield, VA

Home | Current Version | Previous Version | Text Only | Print | Product List | Glossary On
Versions: 1 2 3 4 5 6 7 8 9 10 11 12 13 14 15
000
FTUS41 KAKQ 060540
TAFECG
TAF
KECG 060540Z 0606/0706 VRB03KT P6SM VCSH OVC100
     FM060900 04006KT 6SM -RA BR OVC050
     FM061200 04011KT 4SM RA BR OVC050
     FM061500 06014G24KT 3SM RA BR OVC012
     FM061700 06014G24KT 2SM RA BR OVC007
     FM062300 34011KT 3SM BR OVC005
     FM070100 28007KT P6SM OVC004=

USA.gov is the U.S. government's official web portal to all federal, state and local government web resources and services.